Terminal Aerodrome Forecast
Issued by NWS Duluth, MN

Home | Current Version | Previous Version | Text Only | Print | Product List | Glossary On
Versions: 1 2 3 4 5 6 7 8 9 10 11 12 13 14
000
FTUS43 KDLH 242300 RRA
TAFINL
TAF
KINL 242341Z 2500/2524 30013G20KT P6SM SKC
     FM250100 30010KT P6SM SKC
     FM250300 31005KT P6SM SCT150
     FM251500 34007KT P6SM SCT150
     FM251800 33008KT P6SM SCT025 BKN080=

USA.gov is the U.S. government's official web portal to all federal, state and local government web resources and services.